Airfield :
LOGIN :

Register | Disclaimer

   EN    FR    IT 

 










Legend :    VFR   Marginal VFR   IFR   Intensive IFR   Very Intensive IFR
Visi :
Ceiling :
>= 8 km
>= 3000ft
5 to 8 km
1000 to 3000 ft
1500m to 5 km
500 to 1000 ft
800 to 1500m
200 to 500 ft
< 800m
< 200 ft
Symbols :   Thunderstorms  Fog  Heavy snow  Heavy precipitations  Wind > 20 kt
SIGMETs :     Misc.  Thunderstorms  Icing  Turbulence  Mountain Waves  Volcanic Ashes






- Airport Elevation : 112 ft
- IATA code : SVQ


LEZL - Sevilla San Pablo

CURRENT METAR :
  • 260400Z AUTO 04007KT CAVOK 19/10 Q1019

EXPIRED METARs :
  • 260330Z AUTO 04006KT CAVOK 19/11 Q1019
  • 260300Z AUTO 03007KT CAVOK 19/11 Q1019
  • 260230Z AUTO 04005KT CAVOK 19/11 Q1019
  • 260200Z AUTO VRB02KT CAVOK 20/11 Q1019
  • 260130Z AUTO 06004KT CAVOK 21/12 Q1020

TAF TAF LEZL
Valid from the 26 at 03:00 until the 27 at 03:00 UTC


260200Z 2603/2703 VRB02KT CAVOK TX35/2616Z TN21/2606Z
BECMG 2604/2606 05012KT



MET'MAP, your aeronautical weather chart ! - Copyright ORBIFLY December 2007 - Disclaimer

ORBIFLY MET'MAP TEAM :

Programming & Development : Alexandra Zaïnal
Concept & original design : Baudouin d'Aumeries
Assistance for programming : Marc-Olivier Méhu
Technical & hardware support : Manuel Goepfert

Contact : metmap@orbifly.com




SOURCES & CREDITS :

   NOAA